createdAt,value
2022-07-26T00:01:08.072Z,3.10
2022-07-26T00:03:37.522Z,3.20
2022-07-26T00:06:05.269Z,3.10
2022-07-26T00:08:34.108Z,3.22
2022-07-26T00:11:07.502Z,3.15
2022-07-26T00:13:36.798Z,3.28
2022-07-26T00:16:06.155Z,3.25
2022-07-26T00:18:34.365Z,3.30
2022-07-26T00:21:06.167Z,3.12
2022-07-26T00:23:35.617Z,3.05
2022-07-26T00:26:09.017Z,3.47
2022-07-26T00:28:37.787Z,3.70
2022-07-26T00:31:05.879Z,3.08
2022-07-26T00:33:35.844Z,3.22
2022-07-26T00:36:04.552Z,3.72
2022-07-26T00:38:34.911Z,3.33
2022-07-26T00:41:05.852Z,3.40
2022-07-26T00:43:35.527Z,3.20
2022-07-26T00:46:04.037Z,3.30
2022-07-26T00:48:32.234Z,3.95
2022-07-26T00:51:02.961Z,3.60
2022-07-26T00:53:30.988Z,2.85
2022-07-26T00:55:59.013Z,3.20
2022-07-26T00:58:29.379Z,3.20
2022-07-26T01:00:57.762Z,3.05
2022-07-26T01:03:30.322Z,3.08
2022-07-26T01:06:05.844Z,3.42
2022-07-26T01:08:35.482Z,3.12
2022-07-26T01:11:03.984Z,3.22
2022-07-26T01:13:35.545Z,3.30
2022-07-26T01:16:04.944Z,3.30
2022-07-26T01:18:34.984Z,3.03
2022-07-26T01:21:13.784Z,3.20
2022-07-26T01:23:47.708Z,3.10
2022-07-26T01:26:17.971Z,3.10
2022-07-26T01:28:50.463Z,3.37
2022-07-26T01:31:20.388Z,3.45
2022-07-26T01:33:52.242Z,3.80
2022-07-26T01:36:22.926Z,3.20
2022-07-26T01:38:55.214Z,3.33
2022-07-26T01:41:38.406Z,3.17
2022-07-26T01:44:16.827Z,3.35
2022-07-26T01:46:49.423Z,3.30
2022-07-26T01:49:22.652Z,2.95
2022-07-26T01:51:53.041Z,3.00
2022-07-26T01:54:22.347Z,3.20
2022-07-26T01:56:52.772Z,3.10
2022-07-26T01:59:20.818Z,3.15
2022-07-26T02:01:49.606Z,3.10
2022-07-26T02:04:37.515Z,3.28
2022-07-26T02:07:05.744Z,3.37
2022-07-26T02:09:42.446Z,2.87
2022-07-26T02:12:10.830Z,3.45
2022-07-26T02:14:38.975Z,3.03
2022-07-26T02:17:18.129Z,3.30
2022-07-26T02:19:46.317Z,3.17
2022-07-26T02:22:15.172Z,3.50
2022-07-26T02:24:43.304Z,3.50
2022-07-26T02:27:11.509Z,3.22
2022-07-26T02:29:40.850Z,3.47
2022-07-26T02:32:08.992Z,3.05
2022-07-26T02:34:38.566Z,3.22
2022-07-26T02:37:07.573Z,3.30
2022-07-26T02:39:36.070Z,3.17
2022-07-26T02:42:04.687Z,3.72
2022-07-26T02:44:35.856Z,3.37
2022-07-26T02:47:04.108Z,3.25
2022-07-26T02:49:32.202Z,3.62
2022-07-26T02:52:00.920Z,3.28
2022-07-26T02:54:29.193Z,6.43
2022-07-26T02:56:57.918Z,5.22
2022-07-26T02:59:27.322Z,3.35
2022-07-26T03:01:56.025Z,3.85
2022-07-26T03:04:24.870Z,3.62
2022-07-26T03:06:54.329Z,3.50
2022-07-26T03:09:23.730Z,4.10
2022-07-26T03:11:51.788Z,4.62
2022-07-26T03:14:21.631Z,4.00
2022-07-26T03:16:51.571Z,3.53
2022-07-26T03:19:20.075Z,3.25
2022-07-26T03:21:49.341Z,3.20
2022-07-26T03:24:18.194Z,3.12
2022-07-26T03:26:46.248Z,3.20
2022-07-26T03:29:15.173Z,3.30
2022-07-26T03:31:43.282Z,3.35
2022-07-26T03:34:12.426Z,3.10
2022-07-26T03:36:44.019Z,3.47
2022-07-26T03:39:12.186Z,4.23
2022-07-26T03:41:41.639Z,3.60
2022-07-26T03:44:10.353Z,3.67
2022-07-26T03:46:39.281Z,3.40
2022-07-26T03:49:10.964Z,3.83
2022-07-26T03:51:42.666Z,3.92
2022-07-26T03:54:12.203Z,4.07
2022-07-26T03:56:41.163Z,3.95
2022-07-26T03:59:10.760Z,3.15
2022-07-26T04:01:42.113Z,3.43
2022-07-26T04:04:15.521Z,3.35
2022-07-26T04:06:44.768Z,3.57
2022-07-26T04:09:14.701Z,2.92
2022-07-26T04:11:43.777Z,3.35
2022-07-26T04:14:12.542Z,3.35
2022-07-26T04:16:43.667Z,3.25
2022-07-26T04:19:12.076Z,3.37
2022-07-26T04:21:40.261Z,3.50
2022-07-26T04:24:10.325Z,3.85
2022-07-26T04:26:39.048Z,3.80
2022-07-26T04:29:07.245Z,3.17
2022-07-26T04:31:39.099Z,4.50
2022-07-26T04:34:07.914Z,3.95
2022-07-26T04:36:39.642Z,3.75
2022-07-26T04:39:11.363Z,3.33
2022-07-26T04:41:45.607Z,3.90
2022-07-26T04:44:14.261Z,4.78
2022-07-26T04:46:45.001Z,3.90
2022-07-26T04:49:15.172Z,4.35
2022-07-26T04:51:44.369Z,3.95
2022-07-26T04:54:13.012Z,4.20
2022-07-26T04:56:46.203Z,3.92
2022-07-26T04:59:21.879Z,4.40
2022-07-26T05:01:51.544Z,4.10
2022-07-26T05:04:19.864Z,4.25
2022-07-26T05:06:51.025Z,5.18
2022-07-26T05:09:20.445Z,4.47
2022-07-26T05:11:48.223Z,4.30
2022-07-26T05:14:15.905Z,3.65
2022-07-26T05:16:46.029Z,4.40
2022-07-26T05:19:14.644Z,4.20
2022-07-26T05:21:42.809Z,4.10
2022-07-26T05:24:12.950Z,5.55
2022-07-26T05:26:40.618Z,4.97
2022-07-26T05:29:08.250Z,5.00
2022-07-26T05:31:40.257Z,4.18
2022-07-26T05:34:08.613Z,4.43
2022-07-26T05:36:37.560Z,4.40
2022-07-26T05:39:07.372Z,4.28
2022-07-26T05:41:35.909Z,4.03
2022-07-26T05:44:05.199Z,4.37
2022-07-26T05:46:34.096Z,6.22
2022-07-26T05:49:02.145Z,4.37
2022-07-26T05:51:30.824Z,4.00
2022-07-26T05:54:01.221Z,4.05
2022-07-26T05:56:29.001Z,4.03
2022-07-26T05:58:57.256Z,4.80
2022-07-26T06:01:25.761Z,4.35
2022-07-26T06:03:54.678Z,4.47
2022-07-26T06:06:22.766Z,4.68
2022-07-26T06:08:51.161Z,4.75
2022-07-26T06:11:20.039Z,5.70
2022-07-26T06:13:49.858Z,4.20
2022-07-26T06:16:19.766Z,5.50
2022-07-26T06:18:47.511Z,7.37
2022-07-26T06:21:15.215Z,8.35
2022-07-26T06:23:43.317Z,5.30
2022-07-26T06:26:10.906Z,5.82
2022-07-26T06:28:39.591Z,5.90
2022-07-26T06:31:07.921Z,6.57
2022-07-26T06:33:36.116Z,6.82
2022-07-26T06:36:03.943Z,5.97
2022-07-26T06:38:32.246Z,6.80
2022-07-26T06:41:00.625Z,6.70
2022-07-26T06:43:28.940Z,5.53
2022-07-26T06:45:57.225Z,5.75
2022-07-26T06:48:24.863Z,5.57
2022-07-26T06:50:54.929Z,5.43
2022-07-26T06:53:23.883Z,5.35
2022-07-26T06:55:54.355Z,5.32
2022-07-26T06:58:23.085Z,5.22
2022-07-26T07:00:52.936Z,5.70
2022-07-26T07:03:21.384Z,5.22
2022-07-26T07:05:50.283Z,5.35
2022-07-26T07:08:18.767Z,5.12
2022-07-26T07:10:48.083Z,5.82
2022-07-26T07:13:19.565Z,5.43
2022-07-26T07:15:47.408Z,5.12
2022-07-26T07:18:18.253Z,5.50
2022-07-26T07:20:46.298Z,5.25
2022-07-26T07:23:22.427Z,5.43
2022-07-26T08:12:22.556Z,7.43
2022-07-26T08:14:53.764Z,4.80
2022-07-26T08:17:21.957Z,4.25
2022-07-26T08:19:55.732Z,4.35
2022-07-26T08:22:28.444Z,4.57
2022-07-26T08:25:00.499Z,4.18
2022-07-26T08:27:30.279Z,4.95
2022-07-26T08:29:59.119Z,5.12
2022-07-26T08:32:27.756Z,4.57
2022-07-26T08:35:17.327Z,5.10
2022-07-26T08:37:46.792Z,5.15
2022-07-26T08:40:15.128Z,4.50
2022-07-26T08:42:56.544Z,4.75
2022-07-26T08:45:52.987Z,4.43
2022-07-26T08:48:48.108Z,4.32
2022-07-26T08:51:23.539Z,4.60
2022-07-26T08:54:04.875Z,4.62
2022-07-26T08:56:53.169Z,5.30
2022-07-26T08:59:41.814Z,4.55
2022-07-26T10:40:30.420Z,6.37
2022-07-26T11:02:42.814Z,6.93
2022-07-26T11:05:21.908Z,7.47
2022-07-26T11:08:14.950Z,7.00
2022-07-26T11:11:18.655Z,7.07
2022-07-26T11:13:51.593Z,6.68
2022-07-26T11:16:25.801Z,6.20
2022-07-26T11:19:09.991Z,6.80
2022-07-26T12:57:01.982Z,6.65
2022-07-26T12:59:30.756Z,5.97
2022-07-26T13:02:00.885Z,6.40
2022-07-26T13:04:28.986Z,6.00
2022-07-26T13:06:57.675Z,6.47
2022-07-26T13:09:26.481Z,6.53
2022-07-26T13:11:54.638Z,7.00
2022-07-26T13:14:22.855Z,6.25
2022-07-26T13:16:50.994Z,5.93
2022-07-26T13:19:18.885Z,5.47
2022-07-26T13:21:52.771Z,5.70
2022-07-26T13:24:21.413Z,6.25
2022-07-26T13:26:51.392Z,6.07
2022-07-26T13:29:22.635Z,5.20
2022-07-26T13:31:57.252Z,5.32
2022-07-26T13:34:26.054Z,5.55
2022-07-26T13:50:41.409Z,5.55
2022-07-26T14:03:35.633Z,5.60
2022-07-26T14:06:09.802Z,5.90
2022-07-26T14:08:40.635Z,5.95
2022-07-26T14:11:09.497Z,5.80
2022-07-26T14:13:39.679Z,6.10
2022-07-26T14:16:08.246Z,6.18
2022-07-26T14:18:39.680Z,6.18
2022-07-26T14:21:10.835Z,6.00
2022-07-26T14:23:40.866Z,6.07
2022-07-26T14:26:08.632Z,5.70
2022-07-26T14:28:46.251Z,6.10
2022-07-26T14:31:14.639Z,5.78
2022-07-26T14:33:43.144Z,6.68
2022-07-26T14:36:13.410Z,21.12
2022-07-26T14:38:42.684Z,6.53
2022-07-26T14:41:25.422Z,6.32
2022-07-26T14:59:49.444Z,6.57
2022-07-26T15:02:33.249Z,6.72
2022-07-26T15:05:15.915Z,7.28
2022-07-26T15:08:01.613Z,6.65
2022-07-26T15:10:41.734Z,7.12
2022-07-26T15:13:24.597Z,6.90
2022-07-26T15:16:19.186Z,7.37
2022-07-26T15:18:58.884Z,6.35
2022-07-26T15:21:41.610Z,6.50
2022-07-26T15:24:25.255Z,7.00
2022-07-26T15:27:17.121Z,7.68
2022-07-26T15:30:04.254Z,7.15
2022-07-26T15:33:01.239Z,7.18
2022-07-26T15:35:43.938Z,7.72
2022-07-26T15:38:26.714Z,7.22
2022-07-26T15:41:22.445Z,7.40
2022-07-26T15:48:01.307Z,6.80
2022-07-26T15:53:46.524Z,7.07
2022-07-26T15:56:42.928Z,7.05
2022-07-26T15:59:24.978Z,7.57
2022-07-26T16:02:15.607Z,7.40
2022-07-26T16:08:11.628Z,7.60
2022-07-26T16:11:07.389Z,7.90
2022-07-26T16:13:47.631Z,7.72
2022-07-26T16:19:57.608Z,7.53
2022-07-26T16:22:41.974Z,8.20
2022-07-26T16:25:36.128Z,8.70
2022-07-26T16:28:18.242Z,8.88
2022-07-26T16:31:00.606Z,9.40
2022-07-26T16:33:46.178Z,8.45
2022-07-26T16:36:28.811Z,9.50
2022-07-26T16:39:11.761Z,8.77
2022-07-26T16:51:16.950Z,11.27
2022-07-26T16:54:02.767Z,12.32
2022-07-26T16:57:02.194Z,11.90
2022-07-26T16:59:44.546Z,13.00
2022-07-26T17:02:26.678Z,12.48
2022-07-26T17:11:53.544Z,12.27
2022-07-26T17:18:02.370Z,12.00
2022-07-26T17:20:44.321Z,11.95
2022-07-26T17:23:26.291Z,11.73
2022-07-26T17:26:08.316Z,11.23
2022-07-26T17:28:50.484Z,11.10
2022-07-26T17:31:46.238Z,11.38
2022-07-26T17:34:28.423Z,11.63
2022-07-26T17:37:10.193Z,11.88
2022-07-26T17:39:53.403Z,10.77
2022-07-26T17:42:49.091Z,11.52
2022-07-26T17:45:34.557Z,11.23
2022-07-26T17:48:33.151Z,11.02
2022-07-26T17:51:27.105Z,10.77
2022-07-26T17:54:09.950Z,10.30
2022-07-26T17:56:54.503Z,10.95
2022-07-26T17:59:36.463Z,10.48
2022-07-26T18:02:18.012Z,10.95
2022-07-26T18:05:12.485Z,11.30
2022-07-26T18:07:53.761Z,11.38
2022-07-26T18:10:51.222Z,11.12
2022-07-26T18:13:30.599Z,11.48
2022-07-26T18:16:14.296Z,11.12
2022-07-26T18:19:14.987Z,11.80
2022-07-26T18:22:04.169Z,11.68
2022-07-26T18:24:42.293Z,12.23
2022-07-26T18:27:35.662Z,13.05
2022-07-26T18:30:18.425Z,14.48
2022-07-26T18:33:00.945Z,13.25
2022-07-26T18:35:45.572Z,14.52
2022-07-26T18:38:44.089Z,13.62
2022-07-26T18:41:28.776Z,13.93
2022-07-26T18:44:11.522Z,13.93
2022-07-26T18:53:10.517Z,14.60
2022-07-26T18:55:52.534Z,15.60
2022-07-26T18:58:34.338Z,15.15
2022-07-26T19:01:34.568Z,14.45
2022-07-26T19:04:17.959Z,14.95
2022-07-26T19:07:12.073Z,15.45
2022-07-26T19:09:57.913Z,15.13
2022-07-26T19:12:45.538Z,15.10
2022-07-26T19:15:17.843Z,16.10
2022-07-26T19:18:12.134Z,14.82
2022-07-26T19:20:54.483Z,14.90
2022-07-26T19:30:05.096Z,15.27
2022-07-26T19:36:25.642Z,14.80
2022-07-26T19:38:52.679Z,14.30
2022-07-26T19:41:56.208Z,14.43
2022-07-26T19:44:38.676Z,14.93
2022-07-26T19:47:35.772Z,14.98
2022-07-26T19:50:18.768Z,14.73
2022-07-26T19:53:12.688Z,15.52
2022-07-26T19:55:53.742Z,14.87
2022-07-26T19:58:49.470Z,15.73
2022-07-26T20:01:35.942Z,15.70
2022-07-26T20:04:26.421Z,14.85
2022-07-26T20:07:22.490Z,15.25
2022-07-26T20:10:02.613Z,14.87
2022-07-26T20:12:44.756Z,14.18
2022-07-26T20:22:12.698Z,13.73
2022-07-26T20:24:57.593Z,13.98
2022-07-26T20:27:55.153Z,14.35
2022-07-26T20:30:38.522Z,14.98
2022-07-26T20:39:38.408Z,15.00
2022-07-26T20:42:22.763Z,13.30
2022-07-26T20:45:15.353Z,13.02
2022-07-26T20:47:56.219Z,12.30
2022-07-26T20:50:37.105Z,12.18
2022-07-26T20:53:35.546Z,12.95
2022-07-26T20:56:19.713Z,11.15
2022-07-26T20:59:15.968Z,10.75
2022-07-26T21:01:56.252Z,9.90
2022-07-26T21:04:38.738Z,9.18
2022-07-26T21:07:21.453Z,9.15
2022-07-26T21:10:04.252Z,9.60
2022-07-26T21:19:22.587Z,8.55
2022-07-26T21:22:18.490Z,8.18
2022-07-26T21:24:59.279Z,9.20
2022-07-26T21:31:13.403Z,8.73
2022-07-26T21:33:55.896Z,9.75
2022-07-26T21:36:42.780Z,10.32
2022-07-26T21:39:37.994Z,9.73
2022-07-26T21:42:22.831Z,9.55
2022-07-26T21:45:06.608Z,9.38
2022-07-26T21:50:59.665Z,9.52
2022-07-26T21:53:40.912Z,8.98
2022-07-26T21:56:34.712Z,9.05
2022-07-26T21:59:16.938Z,9.38
2022-07-26T22:02:01.494Z,8.50
2022-07-26T22:04:46.284Z,8.18
2022-07-26T22:07:33.491Z,7.87
2022-07-26T22:10:19.204Z,8.20
2022-07-26T22:16:28.564Z,8.40
2022-07-26T22:19:20.760Z,7.80
2022-07-26T22:22:18.104Z,8.60
2022-07-26T22:25:03.590Z,8.50
2022-07-26T22:28:06.051Z,8.88
2022-07-26T22:30:49.403Z,8.57
2022-07-26T22:33:48.137Z,8.10
2022-07-26T22:56:19.454Z,6.93
2022-07-26T22:59:00.731Z,6.65
2022-07-26T23:01:45.031Z,6.82
2022-07-26T23:17:40.225Z,7.62
2022-07-26T23:20:35.821Z,6.28
2022-07-26T23:23:21.219Z,6.85
2022-07-26T23:26:04.569Z,6.28
2022-07-26T23:28:48.578Z,5.40
2022-07-26T23:31:47.672Z,5.20
2022-07-26T23:34:33.672Z,4.60
2022-07-26T23:40:35.447Z,3.95
2022-07-26T23:43:25.269Z,3.78
2022-07-26T23:46:07.545Z,4.12
2022-07-26T23:55:12.494Z,3.30
2022-07-26T23:58:06.064Z,3.60
